createdAt,value
2023-04-13T09:47:45.906Z,19520.00
2023-04-13T09:55:13.865Z,17408.00
2023-04-13T09:56:13.876Z,17760.00
2023-04-13T10:11:36.302Z,18848.00
2023-04-13T10:12:36.239Z,18016.00
2023-04-13T10:23:46.202Z,21888.00
2023-04-13T10:24:46.143Z,23104.00
2023-04-13T10:25:46.114Z,23168.00
2023-04-13T10:26:46.123Z,21184.00
2023-04-13T10:27:46.078Z,20544.00
2023-04-13T10:28:46.051Z,20000.00
2023-04-13T10:29:46.057Z,19328.00
2023-04-13T10:30:46.016Z,18720.00
2023-04-13T10:31:46.008Z,17248.00
2023-04-13T10:32:46.037Z,14776.00
2023-04-13T10:33:45.960Z,13100.00
2023-04-13T10:34:45.977Z,13368.00
2023-04-13T10:35:45.942Z,13364.00
2023-04-13T10:37:40.802Z,11944.00
2023-04-13T10:38:40.781Z,9824.00
2023-04-13T10:50:12.352Z,15340.00
2023-04-13T10:51:12.310Z,18080.00
2023-04-13T10:52:12.315Z,19200.00
2023-04-13T10:53:12.277Z,18592.00
2023-04-13T10:54:12.311Z,16576.00
2023-04-13T10:55:12.278Z,15336.00
2023-04-13T10:56:12.232Z,15968.00
2023-04-13T10:57:12.233Z,18016.00
2023-04-13T10:58:12.175Z,18048.00
2023-04-13T10:59:12.203Z,19360.00
2023-04-13T11:00:12.197Z,19200.00
2023-04-13T11:01:12.122Z,17888.00
2023-04-13T11:02:12.177Z,17536.00
2023-04-13T11:03:12.393Z,17664.00
2023-04-13T11:05:12.066Z,20736.00
2023-04-13T11:06:12.056Z,20704.00
2023-04-13T11:07:12.038Z,20576.00
2023-04-13T11:08:12.046Z,20128.00
2023-04-13T11:09:14.401Z,18688.00
2023-04-13T11:10:12.007Z,16172.00
2023-04-13T11:11:14.770Z,15264.00
2023-04-13T11:12:11.954Z,13236.00
2023-04-13T11:13:11.919Z,11152.00
2023-04-13T11:17:38.078Z,14208.00
2023-04-13T11:18:38.008Z,14468.00
2023-04-13T11:19:37.985Z,15828.00
2023-04-13T11:20:38.021Z,18080.00
2023-04-13T11:21:37.991Z,20256.00
2023-04-13T11:22:37.943Z,21632.00
2023-04-13T11:23:37.915Z,22528.00
2023-04-13T11:24:37.904Z,20384.00
2023-04-13T11:25:37.899Z,18592.00
2023-04-13T11:26:38.668Z,18368.00
2023-04-13T11:27:38.072Z,17120.00
2023-04-13T11:28:37.845Z,15244.00
2023-04-13T11:29:37.817Z,16128.00
2023-04-13T11:30:37.821Z,18080.00
2023-04-13T11:31:37.821Z,19872.00
2023-04-13T11:32:37.843Z,20160.00
2023-04-13T11:33:40.058Z,19200.00
2023-04-13T11:34:37.770Z,18560.00
2023-04-13T11:35:37.737Z,18144.00
2023-04-13T11:36:37.738Z,18208.00
2023-04-13T11:37:37.720Z,19584.00
2023-04-13T11:38:37.680Z,19392.00
2023-04-13T11:39:37.680Z,19360.00
2023-04-13T11:40:37.667Z,19488.00
2023-04-13T11:41:37.651Z,19520.00
2023-04-13T11:42:37.619Z,19680.00
2023-04-13T11:43:37.618Z,19712.00
2023-04-13T11:44:37.595Z,19584.00
2023-04-13T11:45:37.599Z,20096.00
2023-04-13T11:46:37.625Z,20960.00
2023-04-13T11:47:37.585Z,19456.00
2023-04-13T11:48:37.551Z,16512.00
2023-04-13T11:49:37.521Z,14152.00
2023-04-13T11:50:37.510Z,9588.00
2023-04-13T11:51:37.482Z,8852.00
2023-04-13T12:02:30.558Z,15780.00
2023-04-13T12:03:42.153Z,19168.00
2023-04-13T12:04:29.591Z,21984.00
2023-04-13T12:05:29.948Z,22912.00
2023-04-13T12:06:29.966Z,22720.00
2023-04-13T12:07:29.944Z,21792.00
2023-04-13T12:08:29.762Z,20224.00
2023-04-13T12:09:53.965Z,18304.00
2023-04-13T12:10:38.163Z,18976.00
2023-04-13T12:12:51.129Z,18432.00
2023-04-13T12:14:48.015Z,17600.00
2023-04-13T12:15:43.702Z,16480.00
2023-04-13T12:17:39.396Z,13364.00
2023-04-13T12:18:36.657Z,13096.00
2023-04-13T12:19:30.488Z,14024.00
2023-04-13T12:20:29.257Z,13528.00
2023-04-13T12:21:29.282Z,14676.00
2023-04-13T12:22:30.230Z,14316.00
2023-04-13T12:23:29.177Z,13012.00
2023-04-13T12:24:29.674Z,15020.00
2023-04-13T12:25:35.524Z,15936.00
2023-04-13T12:27:08.778Z,17024.00
2023-04-13T12:27:29.069Z,13544.00
2023-04-13T12:28:29.066Z,11772.00
2023-04-13T12:29:29.047Z,11500.00
2023-04-13T12:30:29.036Z,10256.00
2023-04-13T12:31:29.029Z,10432.00
2023-04-13T12:32:29.017Z,10768.00
2023-04-13T12:33:28.961Z,14176.00
2023-04-13T12:34:28.956Z,14700.00
2023-04-13T12:35:28.967Z,12152.00
2023-04-13T12:36:28.928Z,13456.00
2023-04-13T12:37:28.897Z,13344.00
2023-04-13T12:38:28.891Z,13900.00
2023-04-13T12:39:28.904Z,13972.00
2023-04-13T12:40:28.886Z,14084.00
2023-04-13T12:41:28.834Z,14028.00
2023-04-13T12:42:28.844Z,13912.00
2023-04-13T12:43:28.800Z,13772.00
2023-04-13T12:44:28.821Z,14204.00
2023-04-13T12:45:28.782Z,14176.00
2023-04-13T12:46:28.782Z,14456.00
2023-04-13T12:47:28.753Z,12840.00
2023-04-13T12:48:28.725Z,13072.00
2023-04-13T12:49:28.706Z,17216.00
2023-04-13T12:50:28.724Z,14868.00
2023-04-13T12:51:28.704Z,18432.00
2023-04-13T12:52:28.667Z,19328.00
2023-04-13T12:53:28.640Z,21472.00
2023-04-13T12:54:28.676Z,18592.00
2023-04-13T12:55:28.617Z,16224.00
2023-04-13T12:56:28.615Z,17600.00
2023-04-13T12:57:28.581Z,19200.00
2023-04-13T12:58:28.588Z,22080.00
2023-04-13T12:59:28.550Z,16608.00
2023-04-13T13:00:28.558Z,17984.00
2023-04-13T13:01:28.588Z,20032.00
2023-04-13T13:02:28.603Z,19712.00
2023-04-13T13:03:28.577Z,22400.00
2023-04-13T13:04:28.492Z,24800.00
2023-04-13T13:05:28.464Z,22752.00
2023-04-13T13:06:28.445Z,24576.00
2023-04-13T13:07:28.428Z,23040.00
2023-04-13T13:08:28.446Z,23296.00
2023-04-13T13:09:28.414Z,23072.00
2023-04-13T13:10:30.079Z,17408.00
2023-04-13T13:11:28.411Z,15308.00
2023-04-13T13:30:14.323Z,18688.00
2023-04-13T13:31:14.315Z,23584.00
2023-04-13T13:32:14.364Z,15808.00
2023-04-13T13:33:14.307Z,16448.00
2023-04-13T13:34:14.283Z,17248.00
2023-04-13T13:45:16.719Z,17664.00
2023-04-13T13:46:16.693Z,17824.00
2023-04-13T13:47:16.720Z,18144.00
2023-04-13T13:48:16.640Z,18976.00
2023-04-13T13:49:16.635Z,24224.00
2023-04-13T13:50:16.636Z,69408.00
2023-04-13T13:51:16.602Z,69888.00
2023-04-13T13:52:16.560Z,85824.00
2023-04-13T13:53:16.557Z,86592.00
2023-04-13T13:54:16.536Z,83296.00
2023-04-13T13:55:16.569Z,82880.00
2023-04-13T13:56:16.528Z,87232.00
2023-04-13T13:57:16.506Z,86464.00
2023-04-13T13:58:16.487Z,86176.00
2023-04-13T13:59:16.492Z,82400.00
2023-04-13T14:00:16.464Z,82624.00
2023-04-13T14:01:16.543Z,82496.00
2023-04-13T14:02:16.426Z,82560.00
2023-04-13T14:03:16.749Z,81472.00
2023-04-13T14:04:16.495Z,81344.00
2023-04-13T14:05:16.397Z,81024.00
2023-04-13T14:06:16.360Z,69536.00
2023-04-13T14:08:04.175Z,79232.00
2023-04-13T14:09:04.182Z,77696.00
2023-04-13T14:10:04.170Z,76384.00
2023-04-13T14:11:04.136Z,72992.00
2023-04-13T14:13:50.809Z,37696.00
2023-04-13T14:14:50.803Z,53184.00
2023-04-13T14:19:40.015Z,71136.00
2023-04-13T14:20:40.525Z,55168.00
2023-04-13T14:29:55.617Z,23936.00
2023-04-13T14:30:55.570Z,36832.00
2023-04-13T14:31:55.569Z,61984.00
2023-04-13T14:32:55.676Z,60480.00
2023-04-13T14:33:55.547Z,55040.00
2023-04-13T14:34:55.548Z,51104.00
2023-04-13T14:35:55.498Z,18752.00
2023-04-13T14:38:24.896Z,37120.00
2023-04-13T14:39:24.876Z,19680.00
2023-04-13T14:40:24.900Z,53568.00
2023-04-13T14:41:24.863Z,46272.00
2023-04-13T14:42:24.843Z,30176.00
2023-04-13T14:43:24.844Z,25504.00
2023-04-13T14:44:24.795Z,28320.00
2023-04-13T14:45:24.817Z,16704.00
2023-04-13T14:51:03.464Z,17344.00
2023-04-13T14:52:03.521Z,51488.00
2023-04-13T14:53:03.412Z,23136.00
2023-04-13T14:54:03.422Z,38464.00
2023-04-13T14:55:03.387Z,44288.00
2023-04-13T14:56:03.369Z,33504.00
2023-04-13T14:57:03.348Z,35232.00
2023-04-13T14:58:03.363Z,52480.00
2023-04-13T14:59:03.664Z,55520.00
2023-04-13T15:00:03.423Z,55168.00
2023-04-13T15:01:03.318Z,55776.00
2023-04-13T15:02:03.373Z,53600.00
2023-04-13T15:03:03.490Z,50688.00
2023-04-13T15:04:12.766Z,45280.00
2023-04-13T15:05:03.269Z,43232.00
2023-04-13T15:06:04.492Z,41344.00
2023-04-13T15:07:03.229Z,41088.00
2023-04-13T15:08:03.225Z,40160.00
2023-04-13T15:09:03.522Z,37312.00
2023-04-13T15:10:03.249Z,32256.00
2023-04-13T15:11:03.213Z,31424.00
2023-04-13T15:12:03.176Z,24704.00
2023-04-13T15:13:03.176Z,24960.00
2023-04-13T15:14:03.128Z,27872.00
2023-04-13T15:15:03.143Z,29696.00
2023-04-13T15:16:03.181Z,32704.00
2023-04-13T15:17:03.161Z,35936.00
2023-04-13T15:18:03.631Z,35712.00
2023-04-13T15:19:03.350Z,33664.00
2023-04-13T15:20:03.149Z,31520.00
2023-04-13T15:21:03.059Z,27456.00
2023-04-13T15:22:03.062Z,19680.00
2023-04-13T15:23:03.007Z,14168.00
2023-04-13T15:24:03.005Z,13040.00
2023-04-13T15:25:03.010Z,12404.00
2023-04-13T15:26:03.031Z,12028.00
2023-04-13T15:27:02.983Z,11924.00
2023-04-13T15:28:02.977Z,11948.00
2023-04-13T15:29:02.954Z,12916.00
2023-04-13T15:30:03.169Z,16384.00
2023-04-13T15:31:03.013Z,21376.00
2023-04-13T15:32:02.951Z,27456.00
2023-04-13T15:33:03.033Z,28608.00
2023-04-13T15:34:02.874Z,29152.00
2023-04-13T15:35:02.902Z,35712.00
2023-04-13T15:36:02.867Z,37216.00
2023-04-13T15:37:02.847Z,37280.00
2023-04-13T15:38:02.858Z,37088.00
2023-04-13T15:39:03.004Z,36768.00
2023-04-13T15:40:02.921Z,35872.00
2023-04-13T15:41:02.790Z,36512.00
2023-04-13T15:42:02.782Z,36224.00
2023-04-13T15:43:02.764Z,35488.00
2023-04-13T15:44:02.758Z,34400.00
2023-04-13T15:45:02.739Z,28896.00
2023-04-13T15:46:02.809Z,31616.00
2023-04-13T15:47:03.293Z,25952.00
2023-04-13T15:48:02.860Z,17920.00
2023-04-13T15:50:01.421Z,11892.00
2023-04-13T15:51:01.349Z,12924.00
2023-04-13T15:52:01.341Z,21312.00
2023-04-13T15:55:49.649Z,34592.00
2023-04-13T15:56:53.702Z,34848.00
2023-04-13T15:58:12.888Z,29888.00
2023-04-13T15:59:12.846Z,30144.00
2023-04-13T16:00:12.861Z,34880.00
2023-04-13T16:01:12.834Z,34304.00
2023-04-13T16:02:12.947Z,29760.00
2023-04-13T16:04:05.929Z,32832.00
2023-04-13T16:05:05.832Z,31552.00
2023-04-13T16:06:05.851Z,30784.00
2023-04-13T16:07:13.492Z,30816.00
2023-04-13T16:08:05.817Z,31904.00
2023-04-13T16:09:05.824Z,32480.00
2023-04-13T16:10:05.806Z,32256.00
2023-04-13T16:11:05.774Z,31648.00
2023-04-13T16:12:05.782Z,23232.00
2023-04-13T16:13:05.731Z,31424.00
2023-04-13T16:14:05.746Z,26496.00
2023-04-13T16:15:05.740Z,22880.00
2023-04-13T16:16:05.767Z,20032.00
2023-04-13T16:17:05.709Z,22912.00
2023-04-13T16:18:05.740Z,26432.00
2023-04-13T16:19:05.698Z,27008.00
2023-04-13T16:20:05.702Z,23840.00
2023-04-13T16:21:05.648Z,23712.00
2023-04-13T16:22:05.674Z,22304.00
2023-04-13T16:23:05.642Z,17728.00
2023-04-13T16:24:05.684Z,13436.00
2023-04-13T16:29:34.488Z,11460.00
2023-04-13T16:30:34.515Z,10548.00
2023-04-13T16:31:55.199Z,9736.00
2023-04-13T16:32:55.237Z,9448.00
2023-04-13T16:34:49.886Z,9424.00
2023-04-13T16:35:49.853Z,9412.00
2023-04-13T16:36:49.880Z,10636.00
2023-04-13T16:37:49.816Z,13140.00
2023-04-13T16:38:49.843Z,15808.00
2023-04-13T16:45:21.495Z,8408.00
2023-04-13T16:46:21.501Z,8520.00
2023-04-13T16:47:21.455Z,8420.00
2023-04-13T16:48:21.427Z,8576.00
2023-04-13T16:49:21.396Z,8596.00
2023-04-13T16:50:21.393Z,8412.00
